Time;durP1;ratioP1;P1;durP2;ratioP2;P2;SDS_P1;SDS_P2;PMS_P1;PMS_P2;Temp;Humidity;BMP_temperature;BMP_pressure;BME280_temperature;BME280_humidity;BME280_pressure;Samples;Min_cycle;Max_cycle;Signal;HPM_P1;HPM_P2
2022/09/29 00:01:12;;;;;;;2.33;1.10;;;7.70;99.90;;;;;;6160542;23;20016;-82
2022/09/29 00:03:38;;;;;;;2.15;1.10;;;7.70;99.90;;;;;;6186098;23;20099;-78
2022/09/29 00:06:14;;;;;;;4.38;1.15;;;8.80;99.90;;;;;;6136233;23;20024;-80
2022/09/29 00:08:39;;;;;;;3.08;1.10;;;7.70;99.90;;;;;;6210820;23;20359;-81
2022/09/29 00:11:14;;;;;;;1.70;1.00;;;8.90;99.90;;;;;;6210734;23;20016;-82
2022/09/29 00:13:40;;;;;;;1.35;1.00;;;7.60;99.90;;;;;;6186512;23;20028;-82
2022/09/29 00:16:06;;;;;;;1.33;0.90;;;7.60;99.90;;;;;;6210497;23;20016;-82
2022/09/29 00:18:33;;;;;;;1.15;1.00;;;7.60;99.90;;;;;;6145462;22;20019;-79
2022/09/29 00:21:02;;;;;;;3.25;1.20;;;7.60;99.90;;;;;;6270606;22;20024;-79
2022/09/29 00:23:28;;;;;;;0.90;0.80;;;9.10;99.90;;;;;;6245601;22;20396;-79
2022/09/29 00:26:13;;;;;;;2.55;1.58;;;7.60;99.90;;;;;;6244694;22;20028;-79
2022/09/29 00:28:44;;;;;;;1.85;1.05;;;7.50;99.90;;;;;;6244998;22;20094;-79
2022/09/29 00:31:11;;;;;;;1.75;1.00;;;6.10;99.90;;;;;;6245235;22;20030;-79
2022/09/29 00:33:37;;;;;;;2.63;1.10;;;7.50;99.90;;;;;;6246201;22;20055;-79
2022/09/29 00:36:11;;;;;;;2.05;1.08;;;7.40;99.90;;;;;;6220140;22;20022;-79
2022/09/29 00:38:37;;;;;;;1.70;0.90;;;7.40;99.90;;;;;;6271195;22;20018;-80
2022/09/29 00:41:04;;;;;;;1.45;0.93;;;7.40;99.90;;;;;;6219780;22;20024;-79
2022/09/29 00:43:45;;;;;;;2.83;1.10;;;7.40;99.90;;;;;;6246884;22;20054;-79
2022/09/29 00:46:14;;;;;;;1.20;0.90;;;7.60;99.90;;;;;;6270307;22;20073;-79
2022/09/29 00:48:40;;;;;;;2.45;1.10;;;7.40;99.90;;;;;;6245711;22;20023;-79
2022/09/29 00:51:06;;;;;;;1.88;0.90;;;7.40;99.90;;;;;;6245087;22;20019;-79
2022/09/29 00:53:32;;;;;;;1.25;1.00;;;7.30;99.90;;;;;;6271224;22;20082;-79
2022/09/29 00:56:06;;;;;;;1.35;0.95;;;8.60;99.90;;;;;;6219399;22;20407;-79
2022/09/29 00:58:50;;;;;;;1.83;1.10;;;7.30;99.90;;;;;;6271329;22;20352;-79
2022/09/29 01:01:15;;;;;;;2.33;1.10;;;7.30;99.90;;;;;;6244963;22;20031;-79
2022/09/29 01:03:45;;;;;;;2.90;1.60;;;7.30;99.90;;;;;;6245630;22;20020;-79
2022/09/29 01:06:24;;;;;;;3.45;1.30;;;7.80;99.90;;;;;;6244896;22;20019;-79
2022/09/29 01:09:02;;;;;;;1.55;1.00;;;7.20;99.90;;;;;;6245471;22;20016;-79
2022/09/29 01:11:29;;;;;;;5.57;1.60;;;7.20;99.90;;;;;;6245650;22;20020;-79
2022/09/29 01:14:02;;;;;;;1.83;1.13;;;7.20;99.90;;;;;;6245133;22;20030;-78
2022/09/29 01:16:29;;;;;;;2.00;1.50;;;7.20;99.90;;;;;;6271232;22;20378;-79
2022/09/29 01:18:57;;;;;;;2.20;1.17;;;7.20;99.90;;;;;;6245401;22;20028;-79
2022/09/29 01:21:39;;;;;;;2.00;1.40;;;7.10;99.90;;;;;;6220282;22;20103;-78
2022/09/29 01:24:42;;;;;;;1.60;1.15;;;7.10;99.90;;;;;;6244950;22;20018;-79
2022/09/29 01:27:15;;;;;;;1.70;1.13;;;7.00;99.90;;;;;;6270512;22;20012;-79
2022/09/29 01:30:02;;;;;;;1.90;1.20;;;7.00;99.90;;;;;;6245423;22;20024;-79
2022/09/29 01:32:36;;;;;;;2.53;1.10;;;7.00;99.90;;;;;;6270706;22;20022;-79
2022/09/29 01:35:18;;;;;;;1.70;1.20;;;8.50;99.90;;;;;;6244812;22;20024;-79
2022/09/29 01:38:18;;;;;;;1.80;1.20;;;6.90;99.90;;;;;;6245234;22;20031;-79
2022/09/29 01:40:49;;;;;;;2.67;1.10;;;6.90;99.90;;;;;;6270976;22;20016;-79
2022/09/29 01:43:26;;;;;;;2.67;1.27;;;7.40;99.90;;;;;;6244653;22;20016;-79
2022/09/29 01:46:15;;;;;;;3.17;1.50;;;6.90;99.90;;;;;;6244254;22;20445;-79
2022/09/29 01:48:48;;;;;;;2.58;1.30;;;6.90;99.90;;;;;;6270479;22;20630;-79
2022/09/29 01:51:23;;;;;;;2.33;1.50;;;6.90;99.90;;;;;;6269001;22;20020;-79
2022/09/29 01:53:53;;;;;;;2.15;1.60;;;7.80;99.90;;;;;;6243689;22;20085;-79
2022/09/29 01:56:29;;;;;;;2.15;1.58;;;7.70;99.90;;;;;;6243155;22;20015;-79
2022/09/29 01:59:04;;;;;;;2.30;1.35;;;6.80;99.90;;;;;;6271009;22;20015;-79
2022/09/29 02:01:36;;;;;;;1.88;1.10;;;6.80;99.90;;;;;;6270438;22;20439;-79
2022/09/29 02:04:19;;;;;;;2.40;1.50;;;6.80;99.90;;;;;;6245086;22;20015;-79
2022/09/29 02:06:52;;;;;;;3.35;1.60;;;6.80;99.90;;;;;;6244803;22;20064;-79
2022/09/29 02:09:29;;;;;;;2.72;1.40;;;6.70;99.90;;;;;;6270643;22;20343;-79
2022/09/29 02:11:59;;;;;;;2.42;1.42;;;7.00;99.90;;;;;;6270292;22;20111;-79
2022/09/29 02:14:32;;;;;;;2.75;1.33;;;6.80;99.90;;;;;;6269448;22;20026;-79
2022/09/29 02:17:18;;;;;;;1.75;1.00;;;6.70;99.90;;;;;;6270623;22;20046;-79
2022/09/29 02:19:46;;;;;;;2.28;1.00;;;6.60;99.90;;;;;;6244906;22;20052;-79
2022/09/29 02:22:13;;;;;;;1.45;1.05;;;6.60;99.90;;;;;;6269718;22;20020;-79
2022/09/29 02:24:39;;;;;;;2.95;1.00;;;6.50;99.90;;;;;;6269377;22;20012;-79
2022/09/29 02:27:05;;;;;;;1.50;0.90;;;6.50;99.90;;;;;;6242812;22;20058;-79
2022/09/29 02:29:32;;;;;;;1.50;1.20;;;7.20;99.90;;;;;;6245341;22;20020;-79
2022/09/29 02:32:01;;;;;;;1.50;0.90;;;6.40;99.90;;;;;;6270248;22;20020;-79
2022/09/29 02:34:30;;;;;;;1.40;0.90;;;6.30;99.90;;;;;;6244054;22;20406;-79
2022/09/29 02:37:21;;;;;;;1.50;1.10;;;7.10;99.90;;;;;;6270214;22;20014;-78
2022/09/29 02:39:54;;;;;;;3.17;1.40;;;6.20;99.90;;;;;;6270530;22;20017;-79
2022/09/29 02:42:32;;;;;;;2.50;1.30;;;6.20;99.90;;;;;;6270259;22;20351;-79
2022/09/29 02:45:32;;;;;;;2.55;1.83;;;6.30;99.90;;;;;;6269989;22;20026;-80
2022/09/29 02:48:25;;;;;;;4.03;1.80;;;6.30;99.90;;;;;;6244913;22;20447;-79
2022/09/29 02:51:04;;;;;;;4.13;1.88;;;6.30;99.90;;;;;;6270738;22;20027;-79
2022/09/29 02:53:45;;;;;;;3.30;1.85;;;6.30;99.90;;;;;;6244754;22;20018;-79
2022/09/29 02:56:37;;;;;;;3.75;2.00;;;6.30;99.90;;;;;;6243822;22;20405;-79
2022/09/29 02:59:09;;;;;;;3.03;2.10;;;6.40;99.90;;;;;;6244240;22;20055;-79
2022/09/29 03:01:47;;;;;;;2.88;1.88;;;6.30;99.90;;;;;;6269629;22;20016;-79
2022/09/29 03:04:13;;;;;;;2.80;2.13;;;6.30;99.90;;;;;;6269422;22;20008;-79
2022/09/29 03:06:38;;;;;;;2.60;1.65;;;6.30;99.90;;;;;;6219485;22;20016;-79
2022/09/29 03:09:04;;;;;;;2.55;1.65;;;6.30;99.90;;;;;;6194556;22;20016;-79
2022/09/29 03:11:30;;;;;;;3.38;2.20;;;6.30;99.90;;;;;;6218893;22;20078;-79
2022/09/29 03:13:55;;;;;;;2.10;1.60;;;6.30;99.90;;;;;;6269741;22;20020;-78
2022/09/29 03:16:21;;;;;;;2.58;1.73;;;6.30;99.90;;;;;;6218476;22;20102;-79
2022/09/29 03:18:47;;;;;;;3.22;1.52;;;6.30;99.90;;;;;;6269471;22;20015;-79
2022/09/29 03:21:12;;;;;;;2.30;1.80;;;6.40;99.90;;;;;;6217339;22;20093;-79
2022/09/29 03:23:38;;;;;;;3.13;1.70;;;6.30;99.90;;;;;;6244517;22;20023;-79
2022/09/29 03:26:04;;;;;;;4.75;1.75;;;6.30;99.90;;;;;;6218743;22;20412;-79
2022/09/29 03:28:30;;;;;;;2.60;1.60;;;6.20;99.90;;;;;;6269567;22;20019;-79
2022/09/29 03:31:02;;;;;;;2.05;1.60;;;6.20;99.90;;;;;;6219474;22;20103;-79
2022/09/29 03:33:27;;;;;;;2.63;1.55;;;6.20;99.90;;;;;;6243888;22;20065;-79
2022/09/29 03:35:53;;;;;;;2.33;1.75;;;6.20;99.90;;;;;;6244373;22;20374;-80
2022/09/29 03:38:20;;;;;;;1.85;1.33;;;7.30;99.90;;;;;;6244344;22;20034;-79
2022/09/29 03:40:45;;;;;;;2.97;1.65;;;6.30;99.90;;;;;;6219690;22;20024;-79
2022/09/29 03:43:11;;;;;;;2.22;1.67;;;6.80;99.90;;;;;;6193573;22;20023;-79
2022/09/29 03:45:37;;;;;;;2.30;1.50;;;6.20;99.90;;;;;;6220713;22;20016;-79
2022/09/29 03:48:02;;;;;;;3.30;1.42;;;6.20;99.90;;;;;;6246362;22;20055;-78
2022/09/29 03:50:28;;;;;;;2.58;1.73;;;6.20;99.90;;;;;;6271574;22;20081;-79
2022/09/29 03:52:54;;;;;;;5.18;1.52;;;6.10;99.90;;;;;;6272214;22;20066;-79
2022/09/29 03:55:19;;;;;;;3.90;2.08;;;6.30;99.90;;;;;;6245513;22;20435;-79
2022/09/29 03:57:45;;;;;;;2.25;1.58;;;6.10;99.90;;;;;;6271851;22;20102;-79
2022/09/29 04:00:12;;;;;;;5.20;2.00;;;6.30;99.90;;;;;;6221525;22;20020;-79
2022/09/29 04:02:37;;;;;;;3.83;1.90;;;6.10;99.90;;;;;;6246121;22;20016;-79
2022/09/29 04:05:04;;;;;;;2.40;1.80;;;6.00;99.90;;;;;;6246220;22;20106;-79
2022/09/29 04:07:30;;;;;;;3.38;2.05;;;6.00;99.90;;;;;;6245867;22;20102;-78
2022/09/29 04:09:56;;;;;;;2.58;1.60;;;6.00;99.90;;;;;;6246147;22;20042;-78
2022/09/29 04:12:22;;;;;;;2.67;1.90;;;6.00;99.90;;;;;;6245913;22;20020;-78
2022/09/29 04:14:47;;;;;;;4.25;1.70;;;6.00;99.90;;;;;;6246117;22;20024;-79
2022/09/29 04:17:13;;;;;;;4.30;1.65;;;6.50;99.90;;;;;;6221427;22;20019;-79
2022/09/29 04:19:39;;;;;;;2.60;1.90;;;6.50;99.90;;;;;;6212301;23;20553;-79
2022/09/29 04:22:05;;;;;;;2.55;1.70;;;7.10;99.90;;;;;;6166115;23;20051;-79
2022/09/29 04:24:30;;;;;;;5.20;2.20;;;6.00;99.90;;;;;;6140486;23;20047;-79
2022/09/29 04:26:56;;;;;;;2.70;1.80;;;6.00;99.90;;;;;;6165719;23;20020;-79
2022/09/29 04:29:22;;;;;;;2.88;2.08;;;6.00;99.90;;;;;;6165668;23;20468;-79
2022/09/29 04:31:47;;;;;;;3.22;2.20;;;6.00;99.90;;;;;;6190369;23;20027;-79
2022/09/29 04:34:13;;;;;;;3.13;2.05;;;7.30;99.90;;;;;;6215378;23;20102;-79
2022/09/29 04:36:39;;;;;;;4.38;1.90;;;6.00;99.90;;;;;;6214687;23;20023;-79
2022/09/29 04:39:05;;;;;;;2.47;1.80;;;6.00;99.90;;;;;;6165748;23;20062;-79
2022/09/29 04:41:33;;;;;;;2.60;1.80;;;6.00;99.90;;;;;;6189223;23;20012;-79
2022/09/29 04:43:59;;;;;;;3.92;2.22;;;6.00;99.90;;;;;;6165837;23;20055;-79
2022/09/29 04:46:25;;;;;;;2.90;2.20;;;6.00;99.90;;;;;;6164956;23;20020;-78
2022/09/29 04:48:50;;;;;;;3.13;2.13;;;6.10;99.90;;;;;;6189985;23;20024;-79
2022/09/29 04:51:16;;;;;;;3.90;2.15;;;6.00;99.90;;;;;;6190572;23;20022;-78
2022/09/29 04:53:42;;;;;;;3.63;2.22;;;6.70;99.90;;;;;;6190173;23;20020;-79
2022/09/29 04:56:08;;;;;;;2.97;2.03;;;5.90;99.90;;;;;;6214375;23;20122;-78
2022/09/29 04:58:34;;;;;;;3.53;2.30;;;7.40;99.90;;;;;;6215117;23;20020;-78
2022/09/29 05:01:08;;;;;;;3.03;2.08;;;5.90;99.90;;;;;;6215266;23;20020;-79
2022/09/29 05:03:34;;;;;;;3.08;2.30;;;5.90;99.90;;;;;;6215140;23;20016;-79
2022/09/29 05:05:59;;;;;;;4.40;2.45;;;7.20;99.90;;;;;;6190107;23;20078;-79
2022/09/29 05:08:25;;;;;;;3.00;2.20;;;6.40;99.90;;;;;;6214619;23;20031;-79
2022/09/29 05:10:51;;;;;;;3.80;2.53;;;7.00;99.90;;;;;;6165126;23;20040;-79
2022/09/29 05:13:17;;;;;;;2.70;2.10;;;7.20;99.90;;;;;;6165399;23;20052;-79
2022/09/29 05:15:42;;;;;;;3.45;2.10;;;7.00;99.90;;;;;;6164426;23;20012;-79
2022/09/29 05:18:08;;;;;;;3.33;2.38;;;5.80;99.90;;;;;;6190302;22;20044;-79
2022/09/29 05:20:34;;;;;;;3.05;2.20;;;7.10;99.90;;;;;;6194685;22;20028;-79
2022/09/29 05:22:59;;;;;;;5.22;2.22;;;5.80;99.90;;;;;;6220013;22;20020;-79
2022/09/29 05:25:26;;;;;;;4.43;2.35;;;5.80;99.90;;;;;;6219280;22;20028;-78
2022/09/29 05:27:52;;;;;;;3.15;2.15;;;5.80;99.90;;;;;;6220594;22;20015;-78
2022/09/29 05:30:18;;;;;;;3.13;2.28;;;5.80;99.90;;;;;;6195182;22;20016;-78
2022/09/29 05:32:44;;;;;;;3.45;2.42;;;5.80;99.90;;;;;;6194945;22;20063;-78
2022/09/29 05:35:10;;;;;;;3.97;2.78;;;5.80;99.90;;;;;;6194723;22;20384;-78
2022/09/29 05:37:36;;;;;;;5.60;3.15;;;5.80;99.90;;;;;;6219609;22;20023;-78
2022/09/29 05:40:02;;;;;;;4.82;3.30;;;5.80;99.90;;;;;;6220545;22;20074;-79
2022/09/29 05:42:27;;;;;;;5.43;2.80;;;5.80;99.90;;;;;;6194368;22;20047;-78
2022/09/29 05:44:53;;;;;;;4.75;2.90;;;5.90;99.90;;;;;;6194465;22;20026;-79
2022/09/29 05:47:19;;;;;;;5.93;3.50;;;5.90;99.90;;;;;;6194968;22;20028;-79
2022/09/29 05:49:44;;;;;;;3.92;2.63;;;5.80;99.90;;;;;;6194466;22;20072;-79
2022/09/29 05:52:10;;;;;;;14.40;3.45;;;5.90;99.90;;;;;;6245145;22;20024;-79
2022/09/29 05:54:36;;;;;;;4.60;3.20;;;5.90;99.90;;;;;;6219020;22;20055;-79
2022/09/29 05:57:01;;;;;;;11.15;3.83;;;7.00;99.90;;;;;;6219802;22;20102;-79
2022/09/29 05:59:27;;;;;;;4.97;3.25;;;5.90;99.90;;;;;;6219313;22;20019;-82
2022/09/29 06:01:53;;;;;;;6.20;3.28;;;5.80;99.90;;;;;;6219826;22;20486;-79
2022/09/29 06:04:18;;;;;;;13.88;3.90;;;5.80;99.90;;;;;;6219151;22;20020;-79
2022/09/29 06:06:46;;;;;;;50.42;6.05;;;5.80;99.90;;;;;;6218372;22;20015;-79
2022/09/29 06:09:12;;;;;;;32.70;4.60;;;6.40;99.90;;;;;;6219429;22;20020;-79
2022/09/29 06:11:37;;;;;;;31.23;5.45;;;6.30;99.90;;;;;;6218966;22;20034;-79
2022/09/29 06:14:03;;;;;;;4.88;3.30;;;5.70;99.90;;;;;;6244350;22;20069;-78
2022/09/29 06:16:30;;;;;;;5.68;3.10;;;6.40;99.90;;;;;;6218982;22;20026;-78
2022/09/29 06:18:58;;;;;;;9.30;3.65;;;5.70;99.90;;;;;;6249584;22;20023;-80
2022/09/29 06:21:26;;;;;;;12.73;3.80;;;5.70;99.90;;;;;;6269931;22;20582;-78
2022/09/29 06:23:56;;;;;;;5.15;3.42;;;5.70;99.90;;;;;;6270207;22;20015;-78
2022/09/29 06:26:23;;;;;;;6.38;3.88;;;7.40;99.90;;;;;;6244333;22;20059;-81
2022/09/29 06:28:48;;;;;;;13.88;3.90;;;5.70;99.90;;;;;;6270128;22;20069;-77
2022/09/29 06:31:17;;;;;;;6.78;3.88;;;5.70;99.90;;;;;;6245073;22;20106;-80
2022/09/29 06:33:43;;;;;;;8.18;3.80;;;5.70;99.90;;;;;;6269764;22;20098;-78
2022/09/29 06:39:03;;;;;;;9.75;6.90;;;5.80;99.90;;;;;;6270407;22;20020;-78
2022/09/29 06:41:28;;;;;;;7.85;5.53;;;5.40;99.90;;;;;;6269480;22;20038;-80
2022/09/29 06:43:55;;;;;;;10.50;7.47;;;5.90;99.90;;;;;;6268883;22;20114;-79
2022/09/29 06:46:21;;;;;;;9.77;7.93;;;5.90;99.90;;;;;;6244830;22;20024;-77
2022/09/29 06:48:47;;;;;;;8.68;6.43;;;6.00;99.90;;;;;;6269065;22;20477;-78
2022/09/29 06:51:13;;;;;;;8.02;6.05;;;6.20;99.90;;;;;;6269591;22;20059;-77
2022/09/29 06:53:39;;;;;;;6.32;4.97;;;5.40;99.90;;;;;;6244301;22;20517;-80
2022/09/29 06:56:07;;;;;;;5.53;4.25;;;6.60;99.90;;;;;;6218768;22;20022;-79
2022/09/29 06:58:34;;;;;;;6.53;4.28;;;6.20;99.90;;;;;;6243624;22;20405;-80
2022/09/29 07:01:00;;;;;;;6.53;4.60;;;6.40;99.90;;;;;;6244714;22;20698;-78
2022/09/29 07:03:28;;;;;;;7.85;5.72;;;6.20;99.90;;;;;;6243909;22;20011;-79
2022/09/29 07:05:54;;;;;;;6.68;5.47;;;6.30;99.90;;;;;;6243281;22;20198;-79
2022/09/29 07:08:20;;;;;;;7.38;5.65;;;7.40;99.90;;;;;;6243378;22;20078;-78
2022/09/29 07:10:47;;;;;;;7.82;5.50;;;6.30;99.90;;;;;;6218222;22;20027;-78
2022/09/29 07:13:13;;;;;;;7.10;5.53;;;6.40;99.90;;;;;;6219068;22;20027;-79
2022/09/29 07:15:38;;;;;;;7.57;5.63;;;6.40;99.90;;;;;;6243642;22;20047;-79
2022/09/29 07:18:04;;;;;;;6.57;5.10;;;7.30;99.90;;;;;;6271095;22;20423;-78
2022/09/29 07:20:31;;;;;;;5.93;4.70;;;6.40;99.90;;;;;;6169081;23;20455;-79
2022/09/29 07:22:57;;;;;;;5.68;4.50;;;5.60;99.90;;;;;;6190383;23;20094;-79
2022/09/29 07:25:23;;;;;;;5.70;4.03;;;7.10;99.90;;;;;;6214329;23;20387;-79
2022/09/29 07:27:50;;;;;;;8.55;4.60;;;6.60;99.90;;;;;;6214640;23;20074;-79
2022/09/29 07:30:17;;;;;;;8.85;5.03;;;6.60;99.90;;;;;;6189603;23;20028;-79
2022/09/29 07:32:44;;;;;;;6.85;4.43;;;7.10;99.90;;;;;;6190218;23;20020;-79
2022/09/29 07:35:09;;;;;;;6.68;5.13;;;6.90;99.90;;;;;;6190585;23;20054;-79
2022/09/29 07:37:35;;;;;;;7.47;6.25;;;7.50;99.90;;;;;;6190390;23;20024;-80
2022/09/29 07:40:01;;;;;;;10.02;7.07;;;8.10;99.90;;;;;;6191440;23;20031;-79
2022/09/29 07:42:28;;;;;;;8.98;6.63;;;7.40;99.90;;;;;;6216084;23;20023;-79
2022/09/29 07:44:54;;;;;;;11.25;7.43;;;8.00;99.90;;;;;;6190488;23;20020;-86
2022/09/29 07:47:20;;;;;;;11.65;8.65;;;8.10;99.90;;;;;;6166820;23;20026;-80
2022/09/29 07:49:47;;;;;;;12.90;9.70;;;8.10;99.90;;;;;;6190617;23;20016;-79
2022/09/29 07:52:14;;;;;;;14.18;9.88;;;8.40;99.90;;;;;;6166602;23;20051;-80
2022/09/29 07:54:40;;;;;;;14.40;10.27;;;9.00;99.90;;;;;;6214820;23;20091;-78
2022/09/29 07:57:05;;;;;;;15.18;10.20;;;8.90;99.90;;;;;;6190562;23;20444;-79
2022/09/29 07:59:31;;;;;;;14.68;10.85;;;9.20;99.90;;;;;;6215662;23;20021;-79
2022/09/29 08:01:57;;;;;;;17.40;11.57;;;9.50;99.90;;;;;;6215233;23;20012;-78
2022/09/29 08:04:23;;;;;;;15.95;11.77;;;9.90;99.90;;;;;;6190310;23;20023;-79
2022/09/29 08:06:49;;;;;;;13.15;10.75;;;10.20;99.90;;;;;;6215130;23;20016;-78
2022/09/29 08:09:15;;;;;;;12.35;10.48;;;10.60;99.90;;;;;;6190288;23;20062;-79
2022/09/29 08:11:42;;;;;;;11.15;8.80;;;10.90;99.90;;;;;;6190048;23;20031;-79
2022/09/29 08:14:11;;;;;;;13.95;9.77;;;11.20;99.90;;;;;;6215269;23;20071;-79
2022/09/29 08:16:38;;;;;;;11.02;7.65;;;11.60;99.90;;;;;;6190330;23;20066;-79
2022/09/29 08:19:04;;;;;;;8.05;5.90;;;11.80;99.90;;;;;;6190633;23;20024;-79
2022/09/29 08:21:35;;;;;;;6.20;5.43;;;12.10;99.90;;;;;;6190905;23;20016;-79
2022/09/29 08:24:03;;;;;;;6.68;4.82;;;12.40;99.90;;;;;;6190593;23;20056;-79
2022/09/29 08:26:31;;;;;;;5.55;4.35;;;12.70;99.90;;;;;;6190308;23;20020;-79
2022/09/29 08:28:57;;;;;;;5.60;3.60;;;12.90;99.90;;;;;;6190045;23;20024;-79
2022/09/29 08:31:22;;;;;;;3.83;3.03;;;13.20;99.90;;;;;;6166037;23;20027;-80
2022/09/29 08:33:50;;;;;;;4.28;3.08;;;13.40;99.90;;;;;;6189674;23;20020;-79
2022/09/29 08:36:19;;;;;;;4.90;2.90;;;13.60;99.90;;;;;;6165696;23;20095;-79
2022/09/29 08:38:51;;;;;;;4.72;2.83;;;13.80;99.90;;;;;;6214983;23;20020;-79
2022/09/29 08:41:35;;;;;;;5.07;2.67;;;14.10;99.90;;;;;;6215346;23;20016;-79
2022/09/29 08:44:18;;;;;;;4.20;2.83;;;14.30;99.90;;;;;;6214853;23;20394;-79
2022/09/29 08:46:51;;;;;;;4.20;3.10;;;14.60;99.90;;;;;;6215201;23;20012;-79
2022/09/29 08:49:26;;;;;;;4.32;3.13;;;14.90;99.90;;;;;;6216010;23;20018;-79
2022/09/29 08:51:55;;;;;;;4.75;2.60;;;14.90;99.90;;;;;;6190050;23;20020;-79
2022/09/29 08:54:33;;;;;;;3.13;2.28;;;15.00;99.90;;;;;;6190066;23;20514;-79
2022/09/29 08:57:00;;;;;;;4.35;2.17;;;14.90;99.90;;;;;;6214804;23;20016;-79
2022/09/29 08:59:28;;;;;;;3.88;2.33;;;15.00;99.90;;;;;;6190241;23;20019;-79
2022/09/29 09:02:22;;;;;;;3.83;1.80;;;14.90;99.90;;;;;;6189906;23;20012;-79
2022/09/29 09:05:06;;;;;;;1.90;1.30;;;14.70;99.90;;;;;;6189377;23;20486;-79
2022/09/29 09:07:42;;;;;;;2.47;1.55;;;14.50;99.90;;;;;;6190091;23;20024;-79
2022/09/29 09:10:38;;;;;;;2.95;1.40;;;14.40;99.90;;;;;;6215185;23;20407;-80
2022/09/29 09:13:11;;;;;;;3.70;1.63;;;14.40;99.90;;;;;;6215185;23;20100;-79
2022/09/29 09:16:18;;;;;;;2.42;1.45;;;14.30;99.90;;;;;;6189489;23;20721;-79
2022/09/29 09:19:05;;;;;;;2.60;1.48;;;14.30;99.90;;;;;;6045716;23;20079;-79
2022/09/29 09:21:41;;;;;;;3.22;1.70;;;14.40;99.90;;;;;;6212195;22;20020;-79
2022/09/29 09:24:20;;;;;;;3.70;1.75;;;14.50;99.90;;;;;;6244928;22;20051;-79
2022/09/29 09:26:47;;;;;;;3.80;2.10;;;14.80;99.90;;;;;;6244682;22;20020;-79
2022/09/29 09:29:34;;;;;;;4.63;2.10;;;15.00;99.90;;;;;;6245645;22;20043;-80
2022/09/29 09:32:06;;;;;;;3.97;2.80;;;15.20;99.90;;;;;;6244875;22;20019;-80
2022/09/29 09:34:43;;;;;;;4.72;3.00;;;15.40;99.90;;;;;;6244809;22;20324;-80
2022/09/29 09:37:25;;;;;;;4.90;3.00;;;15.70;99.90;;;;;;6219950;22;20081;-80
2022/09/29 09:40:04;;;;;;;5.70;2.83;;;15.90;99.90;;;;;;6244640;22;20714;-80
2022/09/29 09:42:35;;;;;;;4.00;2.22;;;16.20;99.90;;;;;;6219574;22;20022;-80
2022/09/29 09:45:21;;;;;;;4.13;2.63;;;16.30;99.90;;;;;;6219262;22;20020;-80
2022/09/29 09:47:48;;;;;;;;;;;16.30;99.90;;;;;;6219695;22;20759;-80
2022/09/29 09:50:18;;;;;;;;;;;16.30;99.90;;;;;;6245951;22;19986;-77
2022/09/29 09:52:50;;;;;;;3.75;2.20;;;16.20;99.90;;;;;;6244232;22;19915;-80
2022/09/29 09:55:17;;;;;;;3.08;2.25;;;16.20;99.90;;;;;;6245017;22;20016;-80
2022/09/29 09:57:52;;;;;;;3.20;2.00;;;16.20;99.90;;;;;;6244540;22;20106;-83
2022/09/29 10:00:23;;;;;;;4.17;2.60;;;16.10;99.90;;;;;;6220026;22;20019;-82
2022/09/29 10:02:55;;;;;;;5.57;3.35;;;16.10;99.90;;;;;;6244502;22;20012;-80
2022/09/29 10:05:37;;;;;;;4.47;2.60;;;16.00;99.90;;;;;;6219518;22;20055;-81
2022/09/29 10:08:06;;;;;;;5.13;3.15;;;15.90;99.90;;;;;;6219697;22;20092;-80
2022/09/29 10:10:32;;;;;;;3.92;2.85;;;15.90;99.90;;;;;;6219631;22;20079;-79
2022/09/29 10:13:05;;;;;;;4.07;2.28;;;15.70;99.90;;;;;;6217508;22;20011;-79
2022/09/29 10:15:34;;;;;;;4.03;2.40;;;15.40;99.90;;;;;;6244780;22;20072;-81
2022/09/29 10:18:18;;;;;;;2.83;2.13;;;15.30;99.90;;;;;;6219080;22;20019;-80
2022/09/29 10:20:44;;;;;;;5.70;2.40;;;15.20;99.90;;;;;;6192777;23;20078;-80
2022/09/29 10:23:27;;;;;;;2.53;1.65;;;15.10;99.90;;;;;;6188564;23;20527;-79
2022/09/29 10:26:08;;;;;;;2.92;1.45;;;15.00;99.90;;;;;;6188571;23;20553;-79
2022/09/29 10:28:51;;;;;;;1.80;1.20;;;15.10;99.90;;;;;;6214747;23;20050;-79
2022/09/29 10:31:20;;;;;;;2.95;1.48;;;15.10;99.90;;;;;;6214454;23;20024;-81
2022/09/29 10:34:13;;;;;;;2.45;1.33;;;15.10;99.90;;;;;;6213420;23;20415;-79
2022/09/29 10:37:19;;;;;;;2.30;1.30;;;15.30;99.90;;;;;;6189522;23;20020;-79
2022/09/29 10:39:47;;;;;;;3.42;1.60;;;15.40;99.90;;;;;;6171575;23;20019;-79
2022/09/29 10:42:24;;;;;;;2.88;1.67;;;15.40;99.90;;;;;;6213470;23;20023;-79
2022/09/29 10:45:00;;;;;;;3.05;1.63;;;15.40;99.90;;;;;;6188315;23;20351;-79
2022/09/29 10:47:26;;;;;;;1.63;1.10;;;15.60;99.90;;;;;;6214611;23;20051;-79
2022/09/29 10:50:15;;;;;;;3.00;1.35;;;15.80;99.90;;;;;;6213875;23;20020;-79
2022/09/29 10:52:43;;;;;;;2.30;0.90;;;16.10;99.90;;;;;;6213933;23;20026;-79
2022/09/29 10:55:20;;;;;;;2.25;0.90;;;16.30;99.90;;;;;;6188364;23;20027;-79
2022/09/29 10:57:47;;;;;;;1.98;1.08;;;16.60;99.90;;;;;;6189317;23;20106;-79
2022/09/29 11:00:35;;;;;;;2.13;1.20;;;16.80;99.90;;;;;;6214052;23;20047;-79
2022/09/29 11:03:18;;;;;;;3.05;1.23;;;17.20;99.90;;;;;;6214256;23;20355;-79
2022/09/29 11:05:58;;;;;;;1.75;0.70;;;17.50;99.90;;;;;;6189339;23;20020;-79
2022/09/29 11:08:26;;;;;;;2.47;0.98;;;17.80;99.90;;;;;;6189448;23;20027;-79
2022/09/29 11:11:36;;;;;;;1.30;0.90;;;17.90;99.90;;;;;;6164757;23;20024;-79
2022/09/29 11:14:02;;;;;;;0.70;0.60;;;17.80;99.90;;;;;;6195368;23;20020;-79
2022/09/29 11:16:32;;;;;;;2.90;0.57;;;17.90;99.90;;;;;;6189089;23;20016;-79
2022/09/29 11:19:05;;;;;;;0.80;0.57;;;18.10;99.90;;;;;;6193190;22;20095;-79
2022/09/29 11:21:47;;;;;;;1.42;0.60;;;18.30;99.90;;;;;;6219635;22;20023;-79
2022/09/29 11:24:25;;;;;;;5.40;0.70;;;18.60;99.90;;;;;;6243931;22;20015;-80
2022/09/29 11:27:03;;;;;;;3.45;0.85;;;18.90;99.90;;;;;;6244951;22;20024;-80
2022/09/29 11:29:51;;;;;;;0.70;0.63;;;19.10;99.90;;;;;;6244736;22;20031;-80
2022/09/29 11:32:17;;;;;;;3.05;0.98;;;19.10;99.90;;;;;;6244695;22;20339;-80
2022/09/29 11:35:04;;;;;;;1.98;0.60;;;19.40;99.90;;;;;;6218270;22;20020;-80
2022/09/29 11:37:44;;;;;;;2.20;0.70;;;19.70;99.90;;;;;;6243999;22;20028;-80
2022/09/29 11:40:18;;;;;;;0.73;0.45;;;20.10;99.90;;;;;;6218812;22;20069;-79
2022/09/29 11:43:18;;;;;;;0.93;0.50;;;20.60;99.90;;;;;;6244821;22;20099;-79
2022/09/29 11:46:02;;;;;;;1.25;0.40;;;21.00;99.90;;;;;;6219320;22;20022;-79
2022/09/29 11:48:33;;;;;;;0.90;0.50;;;21.30;99.60;;;;;;6219178;22;20030;-79
2022/09/29 11:50:59;;;;;;;1.27;0.70;;;21.70;99.10;;;;;;6243865;22;20016;-79
2022/09/29 11:53:27;;;;;;;1.95;0.40;;;22.10;98.50;;;;;;6242958;22;20516;-79
2022/09/29 11:56:16;;;;;;;0.47;0.40;;;22.50;97.90;;;;;;6218991;22;20443;-81
2022/09/29 11:59:08;;;;;;;1.73;0.63;;;22.70;96.60;;;;;;6244560;22;20015;-79
2022/09/29 12:02:11;;;;;;;3.17;0.60;;;23.00;96.30;;;;;;6244768;22;20015;-80
2022/09/29 12:04:48;;;;;;;1.40;0.50;;;23.40;95.20;;;;;;6244229;22;20019;-80
2022/09/29 12:07:42;;;;;;;0.82;0.60;;;24.00;95.20;;;;;;6245880;22;20025;-80
2022/09/29 12:10:21;;;;;;;1.38;0.40;;;23.80;93.30;;;;;;6245769;22;20094;-80
2022/09/29 12:12:54;;;;;;;0.77;0.63;;;24.00;94.20;;;;;;6246139;22;20019;-80
2022/09/29 12:15:38;;;;;;;1.55;0.70;;;23.80;93.40;;;;;;6220183;22;20055;-80
2022/09/29 12:18:13;;;;;;;2.20;0.80;;;23.80;93.50;;;;;;6220043;22;20016;-80
2022/09/29 12:20:43;;;;;;;2.90;1.00;;;24.00;92.90;;;;;;6241265;22;20015;-80
2022/09/29 12:23:13;;;;;;;2.25;0.90;;;24.00;93.00;;;;;;6245562;22;20020;-80
2022/09/29 12:26:01;;;;;;;1.35;0.60;;;24.00;93.10;;;;;;6245415;22;20020;-80
2022/09/29 12:28:43;;;;;;;0.98;0.50;;;24.10;92.80;;;;;;6246341;22;20019;-80
2022/09/29 12:31:15;;;;;;;0.90;0.60;;;24.20;92.10;;;;;;6271122;22;20015;-80
2022/09/29 12:33:47;;;;;;;1.88;1.40;;;23.40;92.70;;;;;;6270966;22;20059;-80
2022/09/29 12:36:44;;;;;;;1.67;0.63;;;22.50;93.70;;;;;;6271177;22;20012;-80
2022/09/29 12:39:44;;;;;;;2.63;0.75;;;21.50;93.70;;;;;;6261883;22;20030;-80
2022/09/29 12:42:16;;;;;;;1.40;0.80;;;21.30;94.90;;;;;;6271073;22;20023;-80
2022/09/29 12:45:15;;;;;;;1.92;0.95;;;21.80;95.70;;;;;;6271428;22;20493;-80
2022/09/29 12:48:05;;;;;;;1.33;0.50;;;22.20;94.30;;;;;;6246125;22;20351;-80
2022/09/29 12:50:43;;;;;;;0.90;0.50;;;22.50;94.30;;;;;;6245965;22;20026;-80
2022/09/29 12:53:21;;;;;;;0.73;0.43;;;22.80;93.90;;;;;;6245212;22;20018;-81
2022/09/29 12:55:57;;;;;;;2.42;0.47;;;22.60;92.90;;;;;;6270546;22;20427;-80
2022/09/29 12:58:48;;;;;;;0.60;0.43;;;22.10;92.80;;;;;;6245170;22;20073;-80
2022/09/29 13:01:31;;;;;;;1.08;0.60;;;21.60;93.80;;;;;;6270905;22;20016;-80
2022/09/29 13:04:11;;;;;;;3.42;0.60;;;21.60;94.50;;;;;;6245331;22;20024;-80
2022/09/29 13:06:37;;;;;;;2.13;0.90;;;21.80;94.80;;;;;;6270824;22;20023;-80
2022/09/29 13:09:15;;;;;;;1.85;0.52;;;22.00;95.00;;;;;;6245699;22;20019;-80
2022/09/29 13:11:51;;;;;;;1.77;0.60;;;22.40;94.40;;;;;;6245292;22;20016;-81
2022/09/29 13:14:25;;;;;;;1.15;0.70;;;22.70;93.90;;;;;;6270137;22;20026;-80
2022/09/29 13:17:34;;;;;;;1.73;0.50;;;22.90;93.40;;;;;;6269939;22;20081;-80
2022/09/29 13:20:22;;;;;;;2.45;0.40;;;23.00;90.60;;;;;;6270867;22;20018;-81
2022/09/29 13:23:27;;;;;;;0.32;0.30;;;22.60;91.80;;;;;;6269202;22;20098;-80